Time;durP1;ratioP1;P1;durP2;ratioP2;P2;SDS_P1;SDS_P2;PMS_P1;PMS_P2;Temp;Humidity;BMP_temperature;BMP_pressure;BME280_temperature;BME280_humidity;BME280_pressure;Samples;Min_cycle;Max_cycle;Signal;HPM_P1;HPM_P2
2023/05/03 00:00:26;;;;;;;6.80;2.45;;;7.10;99.90;;;;;;5054001;28;20025;-85
2023/05/03 00:02:52;;;;;;;7.47;2.92;;;7.10;99.90;;;;;;5057442;28;20033;-85
2023/05/03 00:05:18;;;;;;;8.43;2.85;;;7.00;99.90;;;;;;5054757;28;20128;-85
2023/05/03 00:07:44;;;;;;;7.25;2.70;;;6.90;99.90;;;;;;5045727;28;20108;-85
2023/05/03 00:10:18;;;;;;;8.90;3.15;;;6.90;99.90;;;;;;5050236;28;20041;-85
2023/05/03 00:12:43;;;;;;;4.35;2.47;;;6.80;99.90;;;;;;5048199;28;20032;-85
2023/05/03 00:15:10;;;;;;;6.22;2.20;;;6.70;99.90;;;;;;5057236;28;20024;-85
2023/05/03 00:17:36;;;;;;;7.78;2.65;;;6.70;99.90;;;;;;5050521;28;20033;-86
2023/05/03 00:20:03;;;;;;;3.63;2.20;;;6.60;99.90;;;;;;5054804;28;20028;-85
2023/05/03 00:22:29;;;;;;;6.57;2.45;;;6.50;99.90;;;;;;5055126;28;20675;-85
2023/05/03 00:24:55;;;;;;;7.43;2.90;;;6.40;99.90;;;;;;5054270;28;20032;-85
2023/05/03 00:27:21;;;;;;;5.15;2.95;;;6.40;99.90;;;;;;5053879;28;20482;-85
2023/05/03 00:29:49;;;;;;;7.72;2.22;;;6.30;99.90;;;;;;5055190;28;20047;-86
2023/05/03 00:32:14;;;;;;;18.25;2.90;;;6.20;99.90;;;;;;5050911;28;20377;-86
2023/05/03 00:34:40;;;;;;;5.72;2.47;;;6.20;99.90;;;;;;5065461;28;20104;-85
2023/05/03 00:37:06;;;;;;;11.98;3.05;;;6.10;99.90;;;;;;5063430;28;20032;-85
2023/05/03 00:39:31;;;;;;;10.98;2.95;;;6.20;99.90;;;;;;5061735;28;20522;-88
2023/05/03 00:41:58;;;;;;;9.90;3.15;;;6.10;99.90;;;;;;5056176;28;20075;-86
2023/05/03 00:44:24;;;;;;;7.50;3.00;;;6.10;99.90;;;;;;5055433;28;20446;-85
2023/05/03 00:46:51;;;;;;;11.32;3.00;;;6.00;99.90;;;;;;5055336;28;20029;-86
2023/05/03 00:49:17;;;;;;;7.80;3.00;;;5.90;99.90;;;;;;5052634;28;20098;-85
2023/05/03 00:51:42;;;;;;;6.43;2.75;;;5.80;99.90;;;;;;5051087;28;20043;-85
2023/05/03 00:54:10;;;;;;;9.90;2.65;;;5.80;99.90;;;;;;5055669;28;20029;-87
2023/05/03 00:56:37;;;;;;;8.73;2.83;;;5.70;99.90;;;;;;5051560;28;20051;-85
2023/05/03 00:59:03;;;;;;;9.68;2.85;;;5.60;99.90;;;;;;5053923;28;20077;-85
2023/05/03 01:01:29;;;;;;;6.63;2.70;;;5.50;99.90;;;;;;5064382;28;20032;-86
2023/05/03 01:03:55;;;;;;;6.20;2.58;;;5.40;99.90;;;;;;5044974;28;20099;-85
2023/05/03 01:07:02;;;;;;;8.88;2.88;;;5.40;99.90;;;;;;5056405;28;20025;-84
2023/05/03 01:09:32;;;;;;;8.73;4.05;;;5.30;99.90;;;;;;5038658;28;20051;-86
2023/05/03 01:12:10;;;;;;;13.18;3.42;;;5.20;99.90;;;;;;5053237;28;20041;-85
2023/05/03 01:15:05;;;;;;;15.52;3.25;;;5.20;99.90;;;;;;5054706;28;20024;-84
2023/05/03 01:17:37;;;;;;;9.20;3.00;;;5.10;99.90;;;;;;5058912;28;20032;-85
2023/05/03 01:20:09;;;;;;;12.70;3.22;;;5.10;99.90;;;;;;5045157;28;20125;-85
2023/05/03 01:23:04;;;;;;;10.23;3.45;;;5.00;99.90;;;;;;5049787;28;20083;-85
2023/05/03 01:25:29;;;;;;;8.68;3.25;;;5.00;99.90;;;;;;5048622;28;20025;-85
2023/05/03 01:27:55;;;;;;;10.75;3.17;;;5.00;99.90;;;;;;5042761;28;20562;-85
2023/05/03 01:30:26;;;;;;;9.77;2.92;;;4.90;99.90;;;;;;5052944;28;20398;-85
2023/05/03 01:33:04;;;;;;;12.13;3.50;;;4.90;99.90;;;;;;5051515;28;20021;-85
2023/05/03 01:35:48;;;;;;;5.88;2.97;;;4.90;99.90;;;;;;5049699;28;20025;-85
2023/05/03 01:38:17;;;;;;;14.65;5.03;;;4.80;99.90;;;;;;5043748;28;20036;-85
2023/05/03 01:40:58;;;;;;;11.32;3.60;;;4.80;99.90;;;;;;5050883;28;20107;-85
2023/05/03 01:43:24;;;;;;;11.43;3.35;;;4.70;99.90;;;;;;5039901;28;20063;-84
2023/05/03 01:45:50;;;;;;;8.25;2.72;;;4.70;99.90;;;;;;5055123;28;20112;-86
2023/05/03 01:48:18;;;;;;;6.97;3.28;;;4.70;99.90;;;;;;5053987;28;20672;-85
2023/05/03 01:50:44;;;;;;;7.53;3.28;;;4.70;99.90;;;;;;5045506;28;20053;-85
2023/05/03 01:53:10;;;;;;;8.57;2.90;;;4.60;99.90;;;;;;5056026;28;20028;-85
2023/05/03 01:55:36;;;;;;;9.48;2.85;;;4.60;99.90;;;;;;5053834;28;20489;-85
2023/05/03 01:58:02;;;;;;;11.20;3.47;;;4.60;99.90;;;;;;5046606;28;20094;-86
2023/05/03 02:00:27;;;;;;;13.13;2.90;;;4.60;99.90;;;;;;5053128;28;20028;-85
2023/05/03 02:02:53;;;;;;;6.70;3.22;;;4.50;99.90;;;;;;5053830;28;20075;-84
2023/05/03 02:05:19;;;;;;;8.60;3.40;;;4.50;99.90;;;;;;5047011;28;20049;-85
2023/05/03 02:07:45;;;;;;;8.43;3.45;;;4.40;99.90;;;;;;5051200;28;20023;-85
2023/05/03 02:10:13;;;;;;;7.07;3.30;;;4.40;99.90;;;;;;5049373;28;20432;-85
2023/05/03 02:12:43;;;;;;;9.65;3.22;;;4.40;99.90;;;;;;5048775;28;20021;-85
2023/05/03 02:15:10;;;;;;;5.47;3.28;;;4.40;99.90;;;;;;5046863;28;20055;-85
2023/05/03 02:17:36;;;;;;;7.15;3.00;;;4.30;99.90;;;;;;5049586;28;20084;-85
2023/05/03 02:20:05;;;;;;;6.03;3.05;;;4.30;99.90;;;;;;5052985;28;20497;-85
2023/05/03 02:22:31;;;;;;;10.98;3.17;;;4.30;99.90;;;;;;5048442;28;20108;-85
2023/05/03 02:24:57;;;;;;;4.18;2.75;;;4.30;99.90;;;;;;5049979;28;20075;-84
2023/05/03 02:27:23;;;;;;;10.20;2.85;;;4.30;99.90;;;;;;5047826;28;20029;-87
2023/05/03 02:29:49;;;;;;;9.70;4.35;;;4.20;99.90;;;;;;5044718;28;20537;-86
2023/05/03 02:32:14;;;;;;;5.50;2.88;;;4.20;99.90;;;;;;5051656;28;20370;-85
2023/05/03 02:34:43;;;;;;;6.72;2.78;;;4.10;99.90;;;;;;5053835;28;20363;-85
2023/05/03 02:37:08;;;;;;;8.30;3.47;;;4.10;99.90;;;;;;5045142;28;20561;-85
2023/05/03 02:39:34;;;;;;;8.80;2.90;;;4.10;99.90;;;;;;5050992;28;20119;-85
2023/05/03 02:42:01;;;;;;;5.75;2.95;;;4.10;99.90;;;;;;5049204;28;20053;-85
2023/05/03 02:44:27;;;;;;;6.93;2.53;;;4.10;99.90;;;;;;5048186;28;20115;-85
2023/05/03 02:46:53;;;;;;;9.57;3.33;;;4.00;99.90;;;;;;5050325;28;20080;-85
2023/05/03 02:49:19;;;;;;;7.82;3.20;;;4.00;99.90;;;;;;5043090;28;20484;-84
2023/05/03 02:51:44;;;;;;;11.25;3.38;;;4.00;99.90;;;;;;5042680;28;20186;-85
2023/05/03 02:54:11;;;;;;;8.00;3.30;;;3.90;99.90;;;;;;5053662;28;20489;-86
2023/05/03 02:56:37;;;;;;;6.82;3.03;;;3.90;99.90;;;;;;5042084;28;20035;-84
2023/05/03 02:59:02;;;;;;;7.57;2.97;;;3.90;99.90;;;;;;5046637;28;20032;-85
2023/05/03 03:01:28;;;;;;;6.47;2.92;;;3.90;99.90;;;;;;5047251;28;20036;-85
2023/05/03 03:03:54;;;;;;;5.07;3.42;;;3.80;99.90;;;;;;5043996;28;20053;-84
2023/05/03 03:06:20;;;;;;;10.68;3.45;;;3.80;99.90;;;;;;5054018;28;20470;-84
2023/05/03 03:08:46;;;;;;;7.32;3.03;;;3.80;99.90;;;;;;5044723;28;20067;-85
2023/05/03 03:11:11;;;;;;;8.93;2.83;;;3.70;99.90;;;;;;5051509;28;20079;-85
2023/05/03 03:13:39;;;;;;;12.30;3.90;;;3.70;99.90;;;;;;5052276;28;20062;-83
